Time;durP1;ratioP1;P1;durP2;ratioP2;P2;SDS_P1;SDS_P2;PMS_P1;PMS_P2;Temp;Humidity;BMP_temperature;BMP_pressure;BME280_temperature;BME280_humidity;BME280_pressure;Samples;Min_cycle;Max_cycle;Signal;HPM_P1;HPM_P2
2021/01/18 00:03:54;;;;;;;25.90;17.92;;;;;;;2.53;86.03;100811.44;10314234;28;20111;-65
2021/01/18 00:08:56;;;;;;;26.27;18.52;;;;;;;2.59;86.15;100805.09;10309535;28;20042;-66
2021/01/18 00:13:57;;;;;;;26.83;19.20;;;;;;;2.64;86.12;100829.44;10325044;28;20657;-65
2021/01/18 00:18:58;;;;;;;24.63;17.95;;;;;;;2.57;86.18;100807.81;10309487;28;20039;-67
2021/01/18 00:23:59;;;;;;;24.58;18.23;;;;;;;2.75;85.49;100827.25;10341375;28;20050;-66
2021/01/18 00:29:01;;;;;;;21.88;16.35;;;;;;;2.82;85.34;100817.34;10314145;28;21709;-67
2021/01/18 00:34:02;;;;;;;19.65;16.02;;;;;;;2.86;84.96;100818.09;10316204;28;20061;-66
2021/01/18 00:39:03;;;;;;;23.20;16.88;;;;;;;2.86;84.73;100807.59;10312790;28;20046;-65
2021/01/18 00:44:05;;;;;;;18.90;16.13;;;;;;;2.93;84.65;100809.06;10319810;28;20104;-66
2021/01/18 00:49:07;;;;;;;19.75;15.30;;;;;;;2.97;84.54;100808.00;10324728;28;20111;-66
2021/01/18 00:54:08;;;;;;;20.70;15.95;;;;;;;3.12;84.57;100817.94;10323670;28;20079;-66
2021/01/18 00:59:09;;;;;;;19.35;14.80;;;;;;;3.16;84.09;100811.59;10319750;28;20373;-65
2021/01/18 01:04:11;;;;;;;20.92;14.85;;;;;;;3.30;83.86;100818.94;10317856;28;20460;-65
2021/01/18 01:09:12;;;;;;;20.38;13.68;;;;;;;3.31;83.94;100819.78;10319021;28;20087;-67
2021/01/18 01:14:13;;;;;;;21.95;15.18;;;;;;;3.37;83.58;100822.16;10312766;28;20046;-65
2021/01/18 01:19:14;;;;;;;16.70;12.60;;;;;;;3.40;83.38;100832.56;10318531;28;20498;-66
2021/01/18 01:24:20;;;;;;;19.77;14.02;;;;;;;3.30;83.90;100825.97;10313173;28;20138;-65
2021/01/18 01:29:21;;;;;;;18.40;13.40;;;;;;;3.47;83.86;100847.19;10324182;28;20053;-66
2021/01/18 01:34:22;;;;;;;13.18;10.90;;;;;;;3.49;83.50;100823.44;10319133;28;20054;-65
2021/01/18 01:39:24;;;;;;;13.52;9.80;;;;;;;3.49;83.51;100828.69;10311889;28;20042;-65
2021/01/18 01:44:25;;;;;;;11.85;9.18;;;;;;;3.61;83.37;100843.97;10316266;28;20099;-65
2021/01/18 01:49:26;;;;;;;10.43;7.57;;;;;;;3.63;83.18;100844.75;10314831;28;20074;-65
2021/01/18 01:54:27;;;;;;;11.38;7.50;;;;;;;3.75;82.65;100846.03;10319771;28;20437;-68
2021/01/18 01:59:28;;;;;;;8.98;6.70;;;;;;;3.83;82.58;100861.53;10326779;28;20042;-66
2021/01/18 02:04:32;;;;;;;8.88;7.25;;;;;;;3.92;82.34;100871.66;10322811;28;20066;-65
2021/01/18 02:09:33;;;;;;;7.15;6.30;;;;;;;3.83;81.96;100854.47;10326043;28;20077;-65
2021/01/18 02:14:45;;;;;;;6.13;4.90;;;;;;;3.97;81.61;100874.09;10335326;28;20041;-65
2021/01/18 02:20:09;;;;;;;8.00;5.38;;;;;;;4.02;81.38;100869.47;10325497;28;20042;-65
2021/01/18 02:25:29;;;;;;;7.65;5.25;;;;;;;4.03;81.34;100861.50;10340405;28;20098;-70
2021/01/18 02:30:39;;;;;;;7.45;6.53;;;;;;;4.01;81.38;100867.78;10344717;28;20062;-64
2021/01/18 02:36:01;;;;;;;8.80;6.45;;;;;;;3.96;81.35;100864.47;10327526;28;20049;-66
2021/01/18 02:41:14;;;;;;;7.60;6.57;;;;;;;4.06;81.17;100871.91;10327907;28;20038;-65
2021/01/18 02:46:18;;;;;;;9.23;6.68;;;;;;;4.09;81.07;100875.34;10314216;28;20045;-63
2021/01/18 02:51:23;;;;;;;8.10;5.75;;;;;;;3.99;81.18;100866.97;10310651;28;20039;-65
2021/01/18 02:56:27;;;;;;;7.35;5.38;;;;;;;4.03;81.28;100871.19;10314968;28;20046;-65
2021/01/18 03:01:46;;;;;;;7.32;5.95;;;;;;;4.13;80.65;100885.69;10316623;28;20404;-67
2021/01/18 03:07:05;;;;;;;6.15;5.03;;;;;;;4.20;80.18;100879.22;10321729;28;20621;-65
2021/01/18 03:12:10;;;;;;;7.10;4.00;;;;;;;4.28;80.43;100880.63;10319420;28;20057;-64
2021/01/18 03:17:22;;;;;;;6.03;4.35;;;;;;;4.28;80.23;100872.72;10318095;28;20046;-65
2021/01/18 03:22:25;;;;;;;4.35;3.88;;;;;;;4.25;80.10;100871.09;10317417;28;20349;-67
2021/01/18 03:27:27;;;;;;;4.07;2.90;;;;;;;4.18;80.23;100870.50;10327380;28;20072;-67
2021/01/18 03:32:28;;;;;;;3.13;2.83;;;;;;;4.15;80.06;100870.66;10328193;28;20169;-67
2021/01/18 03:37:29;;;;;;;4.25;3.45;;;;;;;4.06;80.78;100871.91;10327226;28;20058;-64
2021/01/18 03:42:31;;;;;;;5.30;4.13;;;;;;;4.05;81.02;100874.59;10321332;28;20108;-65
2021/01/18 03:47:32;;;;;;;5.28;3.90;;;;;;;4.20;81.15;100887.13;10317536;28;20107;-64
2021/01/18 03:52:33;;;;;;;6.43;4.60;;;;;;;4.19;80.87;100872.22;10328366;28;20612;-64
2021/01/18 03:57:34;;;;;;;8.95;7.25;;;;;;;4.16;80.80;100877.63;10313547;28;20093;-65
2021/01/18 04:02:36;;;;;;;14.25;8.90;;;;;;;4.14;81.26;100890.00;10329562;28;20104;-65
2021/01/18 04:07:37;;;;;;;9.25;7.97;;;;;;;4.03;81.68;100882.56;10323120;28;20053;-63
2021/01/18 04:12:39;;;;;;;8.50;6.22;;;;;;;4.01;81.22;100870.41;10332893;28;20054;-64
2021/01/18 04:17:46;;;;;;;7.10;5.90;;;;;;;3.92;82.00;100874.28;10322832;28;20074;-66
2021/01/18 04:22:56;;;;;;;7.47;5.55;;;;;;;3.91;81.57;100883.09;10335712;28;20053;-66
2021/01/18 04:27:59;;;;;;;7.07;5.65;;;;;;;3.84;81.56;100866.72;10331989;28;20095;-66
2021/01/18 04:33:04;;;;;;;6.50;5.85;;;;;;;4.03;81.12;100885.19;10365958;28;20524;-65
2021/01/18 04:38:05;;;;;;;7.60;4.73;;;;;;;4.03;80.02;100877.31;10321629;28;20631;-66
2021/01/18 04:43:07;;;;;;;6.18;5.57;;;;;;;4.04;79.89;100871.13;10336142;28;20106;-65
2021/01/18 04:48:08;;;;;;;7.85;5.43;;;;;;;4.11;78.99;100879.59;10320659;28;20050;-67
2021/01/18 04:53:16;;;;;;;6.30;4.43;;;;;;;4.19;78.62;100868.75;10321101;28;20103;-66
2021/01/18 04:58:18;;;;;;;6.35;4.88;;;;;;;4.37;78.23;100891.66;10319978;28;20499;-65
2021/01/18 05:03:26;;;;;;;7.38;6.45;;;;;;;4.27;77.94;100882.44;10313228;28;20504;-66
2021/01/18 05:08:52;;;;;;;12.93;5.57;;;;;;;4.26;77.45;100888.63;10311275;28;20083;-64
2021/01/18 05:14:00;;;;;;;5.82;4.97;;;;;;;4.23;77.50;100897.53;10333006;28;20057;-64
2021/01/18 05:19:08;;;;;;;7.60;5.50;;;;;;;4.17;77.23;100895.13;10319204;28;20149;-68
2021/01/18 05:24:10;;;;;;;8.23;5.20;;;;;;;3.96;77.21;100880.28;10324685;28;20103;-65
2021/01/18 05:29:11;;;;;;;8.68;5.70;;;;;;;4.02;77.97;100895.81;10328268;28;20049;-64
2021/01/18 05:34:14;;;;;;;10.45;6.70;;;;;;;3.92;78.40;100889.22;10318207;28;20509;-65
2021/01/18 05:39:21;;;;;;;10.23;7.57;;;;;;;3.94;79.10;100895.28;10318354;28;20038;-65
2021/01/18 05:44:44;;;;;;;8.48;7.43;;;;;;;3.86;79.77;100900.91;10317359;28;20050;-65
2021/01/18 05:49:50;;;;;;;9.35;6.97;;;;;;;3.92;79.73;100912.94;10314318;28;20046;-64
2021/01/18 05:55:18;;;;;;;8.65;6.88;;;;;;;4.01;79.58;100915.19;10320445;28;20049;-65
2021/01/18 06:00:41;;;;;;;11.50;7.05;;;;;;;3.93;79.93;100912.00;10333072;28;20058;-65
2021/01/18 06:05:48;;;;;;;8.90;6.32;;;;;;;3.97;79.22;100918.88;10321661;28;20042;-65
2021/01/18 06:10:51;;;;;;;9.10;5.57;;;;;;;3.88;79.31;100918.31;10298904;28;22236;-64
2021/01/18 06:16:13;;;;;;;9.27;5.95;;;;;;;3.92;79.28;100931.38;10302033;28;20053;-65
2021/01/18 06:21:15;;;;;;;8.57;5.72;;;;;;;3.91;78.94;100924.41;10298551;28;20475;-65
2021/01/18 06:26:16;;;;;;;8.00;5.93;;;;;;;3.83;78.53;100896.59;10309392;28;20106;-68
2021/01/18 06:31:17;;;;;;;8.07;5.28;;;;;;;3.99;78.35;100933.66;10301651;28;20057;-67
2021/01/18 06:36:20;;;;;;;7.88;5.53;;;;;;;3.97;77.93;100930.25;10332984;28;20637;-69
2021/01/18 06:41:24;;;;;;;8.77;4.88;;;;;;;3.92;77.32;100932.25;10300602;28;20745;-68
2021/01/18 06:46:30;;;;;;;5.88;4.72;;;;;;;4.07;76.43;100946.53;10301049;28;20460;-65
2021/01/18 06:51:32;;;;;;;5.88;5.05;;;;;;;4.10;75.93;100950.81;10297798;28;20150;-64
2021/01/18 06:56:52;;;;;;;7.05;4.78;;;;;;;4.00;75.74;100951.19;10300721;28;20809;-65
2021/01/18 07:02:16;;;;;;;5.25;4.28;;;;;;;3.91;75.84;100937.56;10309864;28;20049;-64
2021/01/18 07:07:26;;;;;;;7.25;4.70;;;;;;;4.03;77.44;100934.41;10290036;28;20608;-66
2021/01/18 07:12:29;;;;;;;8.20;4.72;;;;;;;4.20;75.70;100968.81;10303963;28;20129;-65
2021/01/18 07:17:53;;;;;;;10.00;5.03;;;;;;;4.15;74.63;100976.06;10307903;28;20114;-64
2021/01/18 07:23:18;;;;;;;7.20;3.90;;;;;;;3.94;75.47;100976.97;10308375;28;20042;-66
2021/01/18 07:28:20;;;;;;;9.57;5.10;;;;;;;3.80;75.97;100974.88;10309947;28;20050;-64
2021/01/18 07:33:22;;;;;;;7.55;4.60;;;;;;;3.78;75.74;100961.75;10303630;28;20195;-64
2021/01/18 07:38:27;;;;;;;10.48;4.90;;;;;;;3.84;75.33;100972.06;10300927;28;22876;-65
2021/01/18 07:43:39;;;;;;;11.95;5.03;;;;;;;3.89;75.50;100985.91;10306552;28;20082;-65
2021/01/18 07:49:15;;;;;;;8.98;4.57;;;;;;;3.88;75.23;100981.53;10304654;28;20089;-64
2021/01/18 07:54:43;;;;;;;8.90;4.28;;;;;;;3.93;75.28;100983.13;10306268;28;20042;-64
2021/01/18 07:59:44;;;;;;;5.93;3.67;;;;;;;4.01;74.65;100983.69;10308018;28;20190;-64
2021/01/18 08:04:48;;;;;;;10.35;4.93;;;;;;;3.96;74.48;100985.63;10289102;28;20131;-65
2021/01/18 08:09:53;;;;;;;7.15;4.00;;;;;;;3.94;74.85;100983.06;10298674;28;20529;-67
2021/01/18 08:15:09;;;;;;;7.18;4.60;;;;;;;4.06;74.53;100981.72;10321426;28;20053;-66
2021/01/18 08:20:11;;;;;;;12.75;5.20;;;;;;;4.03;74.24;100981.84;10300180;28;20081;-66
2021/01/18 08:25:13;;;;;;;7.97;3.78;;;;;;;4.02;74.74;100985.38;10304101;28;20046;-66
2021/01/18 08:30:20;;;;;;;7.28;3.85;;;;;;;3.78;74.55;100971.44;10304797;28;20399;-66
2021/01/18 08:35:29;;;;;;;8.38;3.80;;;;;;;4.03;74.67;100997.66;10312299;28;20077;-67
2021/01/18 08:40:46;;;;;;;5.32;3.28;;;;;;;4.04;74.47;100999.38;10317301;28;20540;-67
2021/01/18 08:45:49;;;;;;;5.22;4.03;;;;;;;3.87;75.54;100992.13;10303655;28;20381;-65
2021/01/18 08:50:52;;;;;;;7.88;4.10;;;;;;;3.84;74.89;100995.78;10316589;28;20066;-67
2021/01/18 08:55:56;;;;;;;6.05;3.70;;;;;;;3.99;74.62;100998.69;10302470;28;20046;-67
2021/01/18 09:00:59;;;;;;;7.75;4.05;;;;;;;4.01;74.18;100999.50;10299548;28;20365;-66
2021/01/18 09:06:01;;;;;;;10.52;4.43;;;;;;;3.75;73.84;100945.25;10299036;28;20050;-65
2021/01/18 09:11:09;;;;;;;8.05;4.45;;;;;;;4.08;73.56;100993.03;10304218;28;20073;-67
2021/01/18 09:16:12;;;;;;;7.15;3.90;;;;;;;3.95;73.31;100979.53;10311611;28;20054;-67
2021/01/18 09:21:16;;;;;;;9.27;4.00;;;;;;;4.03;73.24;100987.09;10303406;28;20100;-67
2021/01/18 09:26:19;;;;;;;7.63;4.45;;;;;;;4.05;73.50;100994.03;10300756;28;20123;-65
2021/01/18 09:31:21;;;;;;;7.97;3.95;;;;;;;4.14;72.94;100984.88;10299948;28;20788;-65
2021/01/18 09:36:23;;;;;;;7.18;4.57;;;;;;;4.10;72.85;100988.56;10297776;28;20060;-67
2021/01/18 09:41:24;;;;;;;6.95;4.53;;;;;;;4.12;73.37;100981.44;10298657;28;20088;-66
2021/01/18 09:46:26;;;;;;;6.82;5.07;;;;;;;4.34;72.63;100998.97;10300025;28;20199;-66
2021/01/18 09:51:28;;;;;;;10.63;5.03;;;;;;;4.37;72.86;101006.78;10294086;28;20065;-65
2021/01/18 09:56:33;;;;;;;8.18;5.13;;;;;;;4.35;72.69;101001.53;10299812;28;20121;-64
2021/01/18 10:01:39;;;;;;;11.70;5.18;;;;;;;4.47;72.63;101018.63;10297587;28;20066;-64
2021/01/18 10:06:41;;;;;;;8.85;5.68;;;;;;;4.55;72.60;101027.09;10299875;28;22156;-63
2021/01/18 10:11:47;;;;;;;8.63;6.05;;;;;;;4.76;71.93;101024.44;10299960;28;20085;-66
2021/01/18 10:17:05;;;;;;;8.77;5.50;;;;;;;5.02;70.54;101009.22;10390008;22;20582;-58
2021/01/18 10:22:18;;;;;;;8.38;5.53;;;;;;;5.28;70.17;100993.06;10439379;28;20047;-61
2021/01/18 10:27:29;;;;;;;6.53;4.88;;;;;;;5.55;68.37;101000.59;10438466;28;20040;-59
2021/01/18 10:32:50;;;;;;;10.55;5.50;;;;;;;5.91;67.36;100996.25;10434020;28;20552;-64
2021/01/18 10:37:52;;;;;;;11.05;6.03;;;;;;;6.23;66.87;100996.47;10432569;28;20060;-58
2021/01/18 10:42:54;;;;;;;8.75;5.68;;;;;;;6.78;64.46;100990.13;10433927;28;20054;-59
2021/01/18 10:48:00;;;;;;;8.70;5.70;;;;;;;8.60;59.22;100980.75;10433608;28;20041;-60
2021/01/18 10:53:13;;;;;;;9.75;5.80;;;;;;;7.37;61.45;100975.44;10434978;28;20217;-60
2021/01/18 10:58:28;;;;;;;7.20;5.13;;;;;;;6.77;64.35;100989.28;10432131;28;20719;-59
2021/01/18 11:03:30;;;;;;;7.73;5.67;;;;;;;6.19;67.18;100991.31;10432166;28;20056;-58
2021/01/18 11:08:31;;;;;;;5.85;5.03;;;;;;;5.89;67.87;100991.03;10432205;28;20101;-58
2021/01/18 11:13:32;;;;;;;8.40;5.57;;;;;;;5.54;69.34;100979.53;10434119;28;20053;-58
2021/01/18 11:18:33;;;;;;;8.95;6.28;;;;;;;5.63;69.76;100979.97;10474753;28;20287;-59
2021/01/18 11:23:35;;;;;;;8.20;5.75;;;;;;;5.38;70.25;100979.41;10460432;28;20514;-59
2021/01/18 11:28:36;;;;;;;7.80;5.82;;;;;;;5.18;70.48;100983.84;10478787;28;20071;-58
2021/01/18 11:33:37;;;;;;;11.00;5.95;;;;;;;5.23;71.51;100981.00;10459835;28;20440;-61
2021/01/18 11:38:39;;;;;;;10.35;6.07;;;;;;;5.34;71.51;100977.84;10477856;28;20502;-59
2021/01/18 11:43:40;;;;;;;7.88;6.38;;;;;;;5.34;70.94;100967.28;10479559;28;20052;-60
2021/01/18 11:48:42;;;;;;;8.65;5.97;;;;;;;5.30;70.81;100961.31;10483853;28;20066;-58
2021/01/18 11:53:46;;;;;;;10.82;6.60;;;;;;;5.36;70.68;100963.66;10465390;28;20177;-60
2021/01/18 11:58:47;;;;;;;11.15;6.65;;;;;;;5.42;70.50;100949.28;10482127;28;20116;-59
2021/01/18 12:03:48;;;;;;;9.50;7.10;;;;;;;5.45;70.13;100938.56;10468276;28;20098;-60
2021/01/18 12:08:49;;;;;;;9.77;7.25;;;;;;;5.72;69.86;100930.25;10481823;28;20052;-59
2021/01/18 12:13:51;;;;;;;9.70;7.40;;;;;;;6.16;68.10;100924.53;10486016;28;20219;-60
2021/01/18 12:18:53;;;;;;;11.02;7.25;;;;;;;7.35;64.57;100905.78;10442253;28;20080;-58
2021/01/18 12:23:54;;;;;;;10.25;6.60;;;;;;;7.46;62.57;100902.56;10442134;28;20048;-61
2021/01/18 12:28:55;;;;;;;10.55;6.72;;;;;;;7.10;63.95;100889.56;10441924;28;20147;-59
2021/01/18 12:33:59;;;;;;;11.48;7.25;;;;;;;6.94;64.97;100889.59;10440947;28;20048;-62
2021/01/18 12:39:01;;;;;;;10.43;6.88;;;;;;;6.83;65.13;100868.97;10440101;28;20179;-59
2021/01/18 12:44:02;;;;;;;10.70;7.45;;;;;;;7.65;62.31;100872.34;10441333;28;20664;-60
2021/01/18 12:49:03;;;;;;;11.68;7.70;;;;;;;7.30;62.84;100860.19;10439796;28;20125;-59
2021/01/18 12:54:04;;;;;;;8.55;6.65;;;;;;;6.71;64.45;100860.78;10439671;28;20110;-58
2021/01/18 12:59:06;;;;;;;14.60;8.80;;;;;;;6.44;66.38;100847.28;10439150;28;20291;-61
2021/01/18 13:04:07;;;;;;;9.57;6.43;;;;;;;7.00;65.18;100842.44;10438743;28;20179;-60
2021/01/18 13:09:09;;;;;;;9.52;7.05;;;;;;;8.25;60.68;100827.16;10439310;28;20102;-59
2021/01/18 13:14:10;;;;;;;18.77;7.45;;;;;;;7.98;61.33;100829.72;10440674;28;20060;-59
2021/01/18 13:19:12;;;;;;;11.35;7.13;;;;;;;8.77;59.08;100809.81;10478962;28;20139;-62
2021/01/18 13:24:14;;;;;;;9.60;6.65;;;;;;;8.72;57.70;100803.97;10480316;28;20048;-59
2021/01/18 13:29:15;;;;;;;9.95;7.15;;;;;;;7.46;62.39;100812.50;10478032;28;20400;-60
2021/01/18 13:34:17;;;;;;;11.25;6.13;;;;;;;7.09;64.49;100817.25;10476021;28;20036;-61
2021/01/18 13:39:19;;;;;;;10.55;6.38;;;;;;;6.68;64.38;100813.34;10477113;28;20135;-58
2021/01/18 13:44:20;;;;;;;11.68;6.53;;;;;;;6.42;65.65;100819.19;10477279;28;20055;-60
2021/01/18 13:49:21;;;;;;;8.27;5.57;;;;;;;6.75;64.50;100805.06;10477169;28;20131;-58
2021/01/18 13:54:22;;;;;;;8.85;5.35;;;;;;;6.73;64.93;100819.22;10477106;28;20141;-60
2021/01/18 13:59:38;;;;;;;7.22;5.03;;;;;;;6.31;64.94;100823.28;10474349;28;20052;-59
2021/01/18 14:04:40;;;;;;;9.13;5.18;;;;;;;6.12;66.00;100827.81;10478327;28;20392;-60
2021/01/18 14:09:41;;;;;;;6.93;5.28;;;;;;;6.10;66.20;100827.06;10477302;28;20056;-58
2021/01/18 14:14:42;;;;;;;10.63;5.65;;;;;;;5.99;66.72;100836.41;10477856;28;20442;-58
2021/01/18 14:19:43;;;;;;;6.38;4.72;;;;;;;5.87;66.98;100844.06;10457936;28;20799;-61
2021/01/18 14:24:44;;;;;;;8.50;5.20;;;;;;;5.77;67.40;100838.41;10478095;28;21215;-59
2021/01/18 14:29:46;;;;;;;10.73;4.97;;;;;;;5.79;67.16;100831.25;10475892;28;20122;-58
2021/01/18 14:34:47;;;;;;;7.28;4.85;;;;;;;5.74;68.13;100836.78;10479556;28;20133;-60
2021/01/18 14:39:48;;;;;;;9.55;5.75;;;;;;;5.83;67.57;100836.28;10480605;28;20189;-59
2021/01/18 14:44:49;;;;;;;7.45;4.90;;;;;;;5.82;67.98;100844.31;10462543;28;20044;-59
2021/01/18 14:49:51;;;;;;;9.55;4.38;;;;;;;5.72;68.18;100827.22;10477721;28;20374;-59
2021/01/18 14:54:52;;;;;;;9.40;4.95;;;;;;;5.72;68.30;100819.28;10478788;28;20119;-59
2021/01/18 14:59:53;;;;;;;9.38;5.35;;;;;;;5.72;68.38;100832.50;10481015;28;20126;-59
2021/01/18 15:04:54;;;;;;;6.38;5.05;;;;;;;5.65;68.73;100827.53;10479441;28;20102;-60
2021/01/18 15:09:55;;;;;;;6.40;4.25;;;;;;;5.76;68.17;100826.13;10480066;28;20056;-60
2021/01/18 15:14:57;;;;;;;7.05;4.57;;;;;;;5.61;68.90;100810.13;10481004;28;20186;-63
2021/01/18 15:19:58;;;;;;;8.18;4.80;;;;;;;5.58;68.80;100802.34;10482382;28;20135;-59
2021/01/18 15:24:59;;;;;;;7.18;4.53;;;;;;;5.64;68.67;100812.63;10485258;28;20582;-59
2021/01/18 15:30:01;;;;;;;6.88;4.43;;;;;;;5.62;68.78;100809.19;10485159;28;20151;-58
2021/01/18 15:35:04;;;;;;;5.43;4.07;;;;;;;5.64;69.31;100817.91;10485063;28;20071;-58
2021/01/18 15:40:06;;;;;;;5.78;4.60;;;;;;;5.62;69.36;100825.03;10484859;28;20048;-58
2021/01/18 15:45:08;;;;;;;7.38;4.45;;;;;;;5.54;68.87;100821.94;10482108;28;20047;-58
2021/01/18 15:50:10;;;;;;;8.27;4.75;;;;;;;5.55;68.29;100823.63;10485588;28;20064;-58
2021/01/18 15:55:12;;;;;;;4.90;3.83;;;;;;;5.50;68.72;100817.75;10483824;28;20197;-58
2021/01/18 16:00:13;;;;;;;5.68;3.38;;;;;;;5.56;68.42;100809.50;10465898;28;20133;-57
2021/01/18 16:05:15;;;;;;;6.57;3.67;;;;;;;5.58;68.25;100823.47;10464591;28;20685;-60
2021/01/18 16:10:16;;;;;;;7.75;4.03;;;;;;;5.56;68.74;100821.88;10483410;28;20384;-58
2021/01/18 16:15:18;;;;;;;6.22;4.00;;;;;;;5.46;69.21;100818.81;10481594;28;20294;-58
2021/01/18 16:20:19;;;;;;;7.18;4.22;;;;;;;5.42;69.05;100817.25;10479055;28;21364;-58
2021/01/18 16:25:20;;;;;;;4.85;3.05;;;;;;;5.28;69.27;100816.19;10480987;28;20040;-59
2021/01/18 16:30:22;;;;;;;5.43;3.78;;;;;;;5.26;69.74;100811.91;10480343;28;20127;-58
2021/01/18 16:35:23;;;;;;;7.22;4.07;;;;;;;5.18;69.85;100809.66;10480561;28;20075;-59
2021/01/18 16:40:25;;;;;;;7.20;3.53;;;;;;;5.00;70.77;100792.06;10480794;28;20045;-58
2021/01/18 16:45:26;;;;;;;5.40;3.70;;;;;;;5.01;70.78;100789.34;10479833;28;20050;-57
2021/01/18 16:50:28;;;;;;;9.80;3.80;;;;;;;4.95;70.71;100793.16;10473606;28;20058;-59
2021/01/18 16:55:29;;;;;;;5.60;3.58;;;;;;;4.84;71.41;100784.88;10479212;28;20609;-58
2021/01/18 17:00:30;;;;;;;8.75;4.72;;;;;;;4.83;71.51;100784.97;10476814;28;20127;-59
2021/01/18 17:05:31;;;;;;;6.40;3.70;;;;;;;4.73;71.56;100774.00;10478333;28;20166;-59
2021/01/18 17:10:33;;;;;;;9.88;4.13;;;;;;;4.67;71.85;100775.16;10477638;28;20820;-58
2021/01/18 17:15:34;;;;;;;10.32;4.10;;;;;;;4.69;71.73;100772.44;10476091;28;20052;-59
2021/01/18 17:20:35;;;;;;;4.78;3.78;;;;;;;4.68;71.66;100784.75;10476355;28;20181;-58
2021/01/18 17:25:36;;;;;;;7.93;3.90;;;;;;;4.68;71.79;100789.19;10458560;28;20048;-58
2021/01/18 17:30:38;;;;;;;8.90;4.18;;;;;;;4.58;71.67;100794.91;10477841;28;20499;-58
2021/01/18 17:35:39;;;;;;;5.72;4.00;;;;;;;4.53;71.92;100778.41;10475352;28;20151;-59
2021/01/18 17:40:40;;;;;;;8.05;3.70;;;;;;;4.68;71.73;100794.47;10475879;28;20071;-58
2021/01/18 17:45:41;;;;;;;11.68;9.40;;;;;;;4.59;71.71;100801.91;10477125;28;20050;-58
2021/01/18 17:50:43;;;;;;;6.03;4.03;;;;;;;4.64;71.83;100806.06;10478296;28;20040;-58
2021/01/18 17:55:44;;;;;;;6.03;4.47;;;;;;;4.66;71.37;100791.06;10479302;28;20162;-58
2021/01/18 18:00:46;;;;;;;5.78;4.13;;;;;;;4.73;71.53;100808.31;10477147;28;20048;-58
2021/01/18 18:05:47;;;;;;;9.15;3.55;;;;;;;4.71;71.51;100804.88;10479699;28;20661;-59
2021/01/18 18:10:49;;;;;;;8.57;5.03;;;;;;;4.78;71.59;100808.94;10478880;28;20192;-58
2021/01/18 18:15:51;;;;;;;6.40;4.03;;;;;;;4.71;71.21;100810.13;10478825;28;20127;-59
2021/01/18 18:20:52;;;;;;;8.48;4.18;;;;;;;4.80;71.23;100811.50;10478501;28;20125;-59
2021/01/18 18:25:53;;;;;;;9.02;4.25;;;;;;;4.82;71.37;100810.50;10478568;28;20866;-59
2021/01/18 18:30:54;;;;;;;6.32;3.95;;;;;;;4.85;71.09;100806.84;10477563;28;20080;-60
2021/01/18 18:35:57;;;;;;;7.53;4.53;;;;;;;4.81;71.19;100790.31;10464086;28;20050;-59
2021/01/18 18:41:07;;;;;;;7.20;4.75;;;;;;;4.82;71.11;100780.59;10482065;28;20055;-58
2021/01/18 18:46:08;;;;;;;12.48;8.18;;;;;;;4.75;70.68;100795.88;10478479;28;20129;-59
2021/01/18 18:51:10;;;;;;;6.55;4.10;;;;;;;4.73;70.83;100824.13;10479406;28;20416;-58
2021/01/18 18:56:12;;;;;;;21.42;19.13;;;;;;;4.69;71.24;100812.84;10482714;28;20127;-58
2021/01/18 19:01:13;;;;;;;11.52;7.03;;;;;;;4.62;71.24;100810.56;10485260;28;20052;-59
2021/01/18 19:06:14;;;;;;;4.95;4.07;;;;;;;4.60;71.25;100818.56;10484892;28;20484;-59
2021/01/18 19:11:22;;;;;;;7.63;3.50;;;;;;;4.63;71.23;100814.94;10483812;28;20051;-59
2021/01/18 19:16:23;;;;;;;6.13;3.72;;;;;;;4.69;71.16;100825.19;10481638;28;20177;-58
2021/01/18 19:21:25;;;;;;;8.55;5.15;;;;;;;4.70;70.81;100818.97;10485016;28;20155;-60
2021/01/18 19:26:26;;;;;;;8.52;3.85;;;;;;;4.67;71.16;100829.66;10482148;28;20052;-58
2021/01/18 19:31:27;;;;;;;7.45;4.32;;;;;;;4.65;70.84;100821.81;10483580;28;20052;-58
2021/01/18 19:36:30;;;;;;;9.10;4.60;;;;;;;4.66;71.23;100820.06;10482147;28;20060;-59
2021/01/18 19:41:32;;;;;;;7.63;4.47;;;;;;;4.66;71.12;100818.28;10482235;28;20052;-58
2021/01/18 19:46:42;;;;;;;11.10;4.70;;;;;;;4.58;70.98;100815.16;10482566;28;20699;-58
2021/01/18 19:51:48;;;;;;;7.60;4.10;;;;;;;4.58;70.92;100813.34;10483521;28;20111;-59
2021/01/18 19:56:50;;;;;;;7.88;4.45;;;;;;;4.72;71.29;100798.66;10482511;28;20401;-58
2021/01/18 20:01:54;;;;;;;18.15;16.25;;;;;;;4.76;70.77;100813.44;10463061;28;20173;-59
2021/01/18 20:06:55;;;;;;;9.37;4.47;;;;;;;4.84;70.97;100807.78;10480562;28;20060;-60
2021/01/18 20:11:57;;;;;;;8.82;4.65;;;;;;;4.77;70.64;100799.28;10480181;28;20336;-59
2021/01/18 20:16:58;;;;;;;12.00;4.38;;;;;;;4.67;71.03;100793.63;10479941;28;20044;-57
2021/01/18 20:22:00;;;;;;;7.13;4.20;;;;;;;4.67;71.36;100777.78;10481345;28;20716;-59
2021/01/18 20:27:01;;;;;;;9.93;5.68;;;;;;;4.74;71.17;100788.88;10479175;28;20412;-59
2021/01/18 20:32:02;;;;;;;8.45;5.30;;;;;;;4.68;71.38;100783.91;10481086;28;20150;-58
2021/01/18 20:37:04;;;;;;;7.97;5.03;;;;;;;4.71;71.51;100783.75;10482557;28;20052;-59
2021/01/18 20:42:12;;;;;;;7.55;6.30;;;;;;;4.74;71.67;100783.63;10479875;28;20898;-61
2021/01/18 20:47:13;;;;;;;7.18;4.85;;;;;;;4.64;72.19;100771.78;10478091;28;20044;-59
2021/01/18 20:52:16;;;;;;;10.30;4.53;;;;;;;4.73;72.67;100769.59;10476768;28;20101;-58
2021/01/18 20:57:18;;;;;;;10.98;5.10;;;;;;;4.80;72.21;100775.41;10477299;28;20217;-58
2021/01/18 21:02:19;;;;;;;8.18;4.45;;;;;;;4.79;72.37;100781.63;10486273;28;20045;-57
2021/01/18 21:07:24;;;;;;;8.75;4.60;;;;;;;4.70;72.12;100755.66;10490288;28;20056;-59
2021/01/18 21:12:27;;;;;;;10.40;5.13;;;;;;;4.73;71.97;100745.84;10487706;28;20349;-59
2021/01/18 21:17:28;;;;;;;10.40;5.97;;;;;;;4.82;71.73;100751.59;10494280;28;20127;-58
2021/01/18 21:22:30;;;;;;;6.28;4.32;;;;;;;4.72;72.01;100740.66;10475803;28;20138;-59
2021/01/18 21:27:35;;;;;;;7.43;4.68;;;;;;;4.65;72.27;100737.44;10488649;28;20154;-61
2021/01/18 21:32:36;;;;;;;9.25;4.95;;;;;;;4.69;72.35;100735.53;10493506;28;20043;-58
2021/01/18 21:37:40;;;;;;;11.50;4.70;;;;;;;4.68;71.98;100747.84;10490033;28;20674;-59
2021/01/18 21:42:46;;;;;;;7.20;4.18;;;;;;;4.67;72.37;100734.72;10492389;28;20749;-58
2021/01/18 21:47:48;;;;;;;8.43;4.60;;;;;;;4.64;72.46;100737.50;10478086;28;20064;-59
2021/01/18 21:52:49;;;;;;;7.82;5.53;;;;;;;4.53;72.53;100723.06;10494061;28;20044;-58
2021/01/18 21:57:50;;;;;;;8.55;5.00;;;;;;;4.47;72.93;100733.91;10488300;28;20655;-58
2021/01/18 22:02:52;;;;;;;8.05;4.78;;;;;;;4.52;72.87;100731.91;10500405;28;20064;-58
2021/01/18 22:07:53;;;;;;;6.82;4.82;;;;;;;4.51;72.52;100724.91;10491659;28;20097;-58
2021/01/18 22:12:54;;;;;;;8.93;5.50;;;;;;;4.42;72.90;100726.19;10490539;28;20112;-58
2021/01/18 22:17:55;;;;;;;7.43;5.20;;;;;;;4.48;72.40;100724.22;10490505;28;20085;-59
2021/01/18 22:22:56;;;;;;;7.72;5.00;;;;;;;4.28;72.69;100723.38;10485983;28;20044;-59
2021/01/18 22:28:01;;;;;;;6.10;5.50;;;;;;;4.27;72.76;100712.91;10493468;28;20059;-58
2021/01/18 22:33:02;;;;;;;9.60;5.53;;;;;;;4.35;72.87;100723.94;10490352;28;20048;-59
2021/01/18 22:38:05;;;;;;;6.32;5.10;;;;;;;4.30;72.78;100715.41;10488873;28;20067;-60
2021/01/18 22:43:06;;;;;;;7.38;5.38;;;;;;;4.32;72.85;100708.25;10472009;28;20451;-58
2021/01/18 22:48:08;;;;;;;9.60;5.88;;;;;;;4.33;72.55;100702.06;10456146;23;20645;-58
2021/01/18 22:53:10;;;;;;;7.65;5.07;;;;;;;4.36;72.86;100709.84;10427241;28;20144;-58
2021/01/18 22:58:11;;;;;;;9.30;5.65;;;;;;;4.38;72.54;100697.44;10441554;28;20056;-65
2021/01/18 23:03:12;;;;;;;5.75;4.35;;;;;;;4.30;73.07;100708.34;10428559;28;20057;-58
2021/01/18 23:08:13;;;;;;;6.63;5.05;;;;;;;4.31;72.91;100693.38;10427138;28;20053;-58
2021/01/18 23:13:14;;;;;;;6.63;4.93;;;;;;;4.37;73.11;100701.00;10440582;28;20044;-58
2021/01/18 23:18:16;;;;;;;7.35;4.90;;;;;;;4.38;72.70;100689.53;10437620;28;20068;-58
2021/01/18 23:23:17;;;;;;;8.15;4.80;;;;;;;4.41;72.65;100697.28;10444847;28;20107;-58
2021/01/18 23:28:18;;;;;;;10.55;4.97;;;;;;;4.42;72.71;100688.47;10446739;28;20041;-58